Time;durP1;ratioP1;P1;durP2;ratioP2;P2;SDS_P1;SDS_P2;PMS_P1;PMS_P2;Temp;Humidity;BMP_temperature;BMP_pressure;BME280_temperature;BME280_humidity;BME280_pressure;Samples;Min_cycle;Max_cycle;Signal;HPM_P1;HPM_P2
2023/08/14 00:00:34;;;;;;;8.15;6.25;;;;;;;21.21;100.00;101199.69;5052854;28;20051;-72
2023/08/14 00:02:59;;;;;;;9.35;5.93;;;;;;;21.02;100.00;101188.63;5071028;28;20049;-72
2023/08/14 00:05:26;;;;;;;7.70;5.88;;;;;;;20.96;100.00;101175.97;5071234;28;20460;-72
2023/08/14 00:07:51;;;;;;;8.98;6.10;;;;;;;20.96;100.00;101180.28;5071045;28;20081;-73
2023/08/14 00:10:17;;;;;;;9.27;5.97;;;;;;;20.85;100.00;101165.34;5070923;28;20028;-73
2023/08/14 00:12:42;;;;;;;7.10;6.13;;;;;;;21.13;100.00;101188.91;5071016;28;20533;-72
2023/08/14 00:15:08;;;;;;;8.85;6.10;;;;;;;21.24;100.00;101185.75;5052479;28;20036;-72
2023/08/14 00:17:34;;;;;;;9.93;5.70;;;;;;;21.09;100.00;101199.50;5070968;28;20090;-72
2023/08/14 00:19:59;;;;;;;10.52;6.28;;;;;;;21.17;100.00;101189.56;5058790;28;20029;-72
2023/08/14 00:22:24;;;;;;;9.52;5.78;;;;;;;21.31;100.00;101169.00;5050659;28;20507;-73
2023/08/14 00:24:50;;;;;;;6.80;5.78;;;;;;;20.85;100.00;101113.63;5050539;28;20123;-72
2023/08/14 00:27:15;;;;;;;6.78;5.40;;;;;;;21.19;100.00;101149.78;5050885;28;20120;-71
2023/08/14 00:29:41;;;;;;;7.35;5.32;;;;;;;21.01;100.00;101155.91;5050275;28;20098;-71
2023/08/14 00:32:06;;;;;;;8.38;5.25;;;;;;;20.98;100.00;101085.34;5050966;28;20480;-72
2023/08/14 00:34:31;;;;;;;6.93;5.88;;;;;;;20.74;100.00;101044.38;5050517;28;20033;-72
2023/08/14 00:36:57;;;;;;;7.88;5.90;;;;;;;21.36;100.00;101115.22;5050607;28;20501;-72
2023/08/14 00:39:22;;;;;;;9.15;5.63;;;;;;;20.52;100.00;101056.75;5050826;28;20025;-72
2023/08/14 00:41:48;;;;;;;6.25;5.60;;;;;;;20.51;100.00;100998.25;5053314;28;20043;-73
2023/08/14 00:44:13;;;;;;;8.85;5.60;;;;;;;20.61;100.00;101048.53;5036592;28;20442;-72
2023/08/14 00:46:39;;;;;;;7.60;5.78;;;;;;;20.91;100.00;101030.56;5054192;28;20037;-72
2023/08/14 00:49:04;;;;;;;7.38;5.63;;;;;;;21.44;100.00;101094.94;5054431;28;20029;-72
2023/08/14 00:51:30;;;;;;;5.72;4.80;;;;;;;21.33;100.00;101084.34;5054133;28;20430;-73
2023/08/14 00:53:55;;;;;;;11.65;5.28;;;;;;;20.94;100.00;101065.75;5054341;28;20479;-72
2023/08/14 00:56:23;;;;;;;7.80;5.10;;;;;;;21.30;100.00;101050.88;5053970;28;20037;-72
2023/08/14 00:58:49;;;;;;;9.30;5.68;;;;;;;21.45;100.00;101039.69;5054011;28;20027;-73
2023/08/14 01:01:15;;;;;;;7.43;5.32;;;;;;;20.86;100.00;101071.34;5053879;28;20029;-73
2023/08/14 01:03:42;;;;;;;8.00;5.35;;;;;;;21.17;100.00;101061.06;5054403;28;20166;-73
2023/08/14 01:06:08;;;;;;;7.88;5.00;;;;;;;21.31;100.00;101055.13;5054043;28;20017;-73
2023/08/14 01:08:35;;;;;;;7.38;5.30;;;;;;;21.13;100.00;101040.63;5054136;28;20025;-73
2023/08/14 01:11:25;;;;;;;7.07;4.93;;;;;;;21.28;100.00;101063.91;5054069;28;20086;-73
2023/08/14 01:13:59;;;;;;;7.00;4.97;;;;;;;21.31;100.00;101060.31;5053591;28;20472;-73
2023/08/14 01:16:30;;;;;;;5.90;5.20;;;;;;;20.88;100.00;101004.84;5054086;28;20033;-73
2023/08/14 01:18:58;;;;;;;5.68;5.10;;;;;;;20.89;100.00;101060.84;5054148;28;20557;-74
2023/08/14 01:21:46;;;;;;;8.82;5.20;;;;;;;21.28;100.00;101063.91;5053925;28;20065;-72
2023/08/14 01:24:20;;;;;;;7.78;4.80;;;;;;;20.97;100.00;101079.38;5053631;28;20036;-73
2023/08/14 01:26:48;;;;;;;6.60;5.43;;;;;;;20.93;100.00;101066.69;5054290;28;20024;-73
2023/08/14 01:29:14;;;;;;;6.07;5.05;;;;;;;20.52;100.00;101005.06;5052636;28;20033;-73
2023/08/14 01:31:39;;;;;;;7.85;5.20;;;;;;;20.88;100.00;101030.72;5053760;28;20475;-73
2023/08/14 01:34:05;;;;;;;6.00;5.10;;;;;;;21.34;100.00;101067.91;5035288;28;20029;-73
2023/08/14 01:36:47;;;;;;;6.95;5.18;;;;;;;20.76;100.00;101008.09;5053547;28;20033;-73
2023/08/14 01:39:18;;;;;;;6.63;4.78;;;;;;;20.67;100.00;101021.53;5053536;28;20025;-74
2023/08/14 01:41:49;;;;;;;8.55;4.95;;;;;;;20.78;100.00;101006.25;5053948;28;20480;-73
2023/08/14 01:44:18;;;;;;;7.28;5.30;;;;;;;20.88;100.00;101094.53;5053520;28;20124;-74
2023/08/14 01:46:47;;;;;;;6.32;5.10;;;;;;;20.65;100.00;101024.19;5053665;28;20069;-73
2023/08/14 01:49:16;;;;;;;6.35;5.15;;;;;;;21.10;100.00;101075.25;5053434;28;20456;-73
2023/08/14 01:51:43;;;;;;;6.75;5.20;;;;;;;20.46;100.00;101033.81;5053518;28;20028;-73
2023/08/14 01:54:09;;;;;;;5.40;4.88;;;;;;;21.24;100.00;101066.72;5052379;28;20032;-74
2023/08/14 01:56:35;;;;;;;7.55;4.43;;;;;;;20.68;100.00;100954.22;5035486;28;20499;-74
2023/08/14 01:59:00;;;;;;;7.40;4.45;;;;;;;20.57;100.00;100972.06;5035095;28;20036;-73
2023/08/14 02:01:26;;;;;;;6.38;4.50;;;;;;;20.85;100.00;100962.81;5039322;28;20024;-73
2023/08/14 02:03:51;;;;;;;5.72;4.63;;;;;;;21.17;100.00;101018.84;5073257;28;20049;-74
2023/08/14 02:06:16;;;;;;;4.97;4.45;;;;;;;20.95;100.00;101005.38;5073265;28;20484;-73
2023/08/14 02:08:42;;;;;;;4.90;4.20;;;;;;;20.60;100.00;100890.97;5054969;28;20035;-73
2023/08/14 02:11:08;;;;;;;4.95;4.28;;;;;;;21.21;100.00;100982.38;5073006;28;20111;-73
2023/08/14 02:13:34;;;;;;;5.45;4.15;;;;;;;21.36;100.00;100975.50;5072607;28;20028;-74
2023/08/14 02:16:02;;;;;;;5.43;4.57;;;;;;;20.95;100.00;100923.47;5072714;28;20404;-73
2023/08/14 02:18:27;;;;;;;7.45;4.32;;;;;;;21.04;100.00;100981.63;5055089;28;20131;-73
2023/08/14 02:20:53;;;;;;;8.00;4.50;;;;;;;20.91;100.00;100928.88;5073074;28;20111;-73
2023/08/14 02:23:18;;;;;;;5.82;4.60;;;;;;;20.83;100.00;100946.56;5072887;28;20411;-72
2023/08/14 02:25:44;;;;;;;6.13;5.03;;;;;;;20.82;100.00;100942.31;5054712;28;20035;-73
2023/08/14 02:28:11;;;;;;;9.35;5.90;;;;;;;20.71;100.00;100997.19;5054395;28;20093;-73
2023/08/14 02:30:37;;;;;;;10.70;5.63;;;;;;;20.55;100.00;101002.34;5072346;28;20029;-73
2023/08/14 02:33:03;;;;;;;9.35;5.75;;;;;;;20.56;100.00;101016.09;5037954;28;20021;-73
2023/08/14 02:35:28;;;;;;;9.50;6.07;;;;;;;20.24;100.00;101012.59;5052625;28;20060;-73
2023/08/14 02:37:54;;;;;;;10.27;6.85;;;;;;;20.00;100.00;100936.34;5034852;28;20506;-74
2023/08/14 02:40:19;;;;;;;13.23;8.07;;;;;;;20.26;100.00;101017.69;5052109;28;20442;-74
2023/08/14 02:42:45;;;;;;;15.93;8.98;;;;;;;20.40;100.00;100994.56;5052555;28;20120;-73
2023/08/14 02:45:10;;;;;;;16.20;10.25;;;;;;;20.68;100.00;101049.03;5051817;28;20029;-74
2023/08/14 02:47:35;;;;;;;13.80;10.13;;;;;;;20.25;100.00;100966.91;5052452;28;20479;-73
2023/08/14 02:50:01;;;;;;;16.10;9.52;;;;;;;20.00;100.00;100971.66;5052658;28;20112;-74
2023/08/14 02:52:26;;;;;;;13.30;9.05;;;;;;;20.43;100.00;101049.47;5052499;28;20025;-73
2023/08/14 02:54:52;;;;;;;15.38;9.52;;;;;;;20.36;100.00;101073.13;5052077;28;20029;-72
2023/08/14 02:57:17;;;;;;;14.68;10.07;;;;;;;20.06;100.00;101004.91;5052503;28;20402;-73
2023/08/14 02:59:43;;;;;;;19.23;10.43;;;;;;;20.63;100.00;101069.13;5049964;28;20491;-73
2023/08/14 03:02:08;;;;;;;16.50;10.30;;;;;;;20.45;100.00;101049.41;5070295;28;20053;-74
2023/08/14 03:04:34;;;;;;;19.45;10.60;;;;;;;20.23;100.00;100992.84;5033497;28;20122;-73
2023/08/14 03:06:59;;;;;;;16.60;10.20;;;;;;;20.45;100.00;101039.91;5051938;28;20411;-73
2023/08/14 03:09:24;;;;;;;15.13;9.35;;;;;;;20.35;100.00;100994.78;5051918;28;20021;-73
2023/08/14 03:11:50;;;;;;;13.93;9.68;;;;;;;20.44;100.00;101063.25;5014454;28;20060;-73
2023/08/14 03:14:15;;;;;;;15.00;9.70;;;;;;;20.01;100.00;101004.28;5030978;28;20044;-73
2023/08/14 03:16:41;;;;;;;16.75;9.20;;;;;;;20.53;100.00;101053.25;5030833;28;20116;-73
2023/08/14 03:19:06;;;;;;;13.63;8.85;;;;;;;20.30;100.00;101055.34;5042417;28;20029;-71
2023/08/14 03:21:32;;;;;;;16.35;9.13;;;;;;;20.10;100.00;100999.50;5041986;28;20565;-72
2023/08/14 03:23:57;;;;;;;13.18;8.85;;;;;;;20.63;100.00;101063.97;5044848;28;20026;-74
2023/08/14 03:26:23;;;;;;;13.32;8.27;;;;;;;20.62;100.00;101067.44;5019513;28;20033;-73
2023/08/14 03:28:48;;;;;;;11.65;6.82;;;;;;;20.44;100.00;101056.31;5047675;28;20029;-73
2023/08/14 03:31:13;;;;;;;11.40;7.00;;;;;;;20.32;100.00;101063.88;5038647;28;20412;-73
2023/08/14 03:33:39;;;;;;;11.27;7.30;;;;;;;19.95;100.00;101013.19;5051474;28;20029;-74
2023/08/14 03:36:04;;;;;;;11.45;6.75;;;;;;;20.48;100.00;101062.97;5055917;28;20442;-74
2023/08/14 03:38:31;;;;;;;9.43;7.05;;;;;;;20.20;100.00;101067.06;5034368;28;20022;-72
2023/08/14 03:40:57;;;;;;;8.43;6.43;;;;;;;20.23;100.00;101067.75;5031610;28;20022;-73
2023/08/14 03:43:22;;;;;;;9.23;6.38;;;;;;;20.72;100.00;101072.06;5031187;28;20049;-73
2023/08/14 03:45:47;;;;;;;7.78;6.18;;;;;;;20.69;100.00;101051.56;5031228;28;20037;-76
2023/08/14 03:48:13;;;;;;;9.18;6.28;;;;;;;21.09;100.00;101044.28;5014158;28;20029;-76
2023/08/14 03:50:38;;;;;;;9.98;5.75;;;;;;;20.68;100.00;101065.38;5031321;28;20616;-73
2023/08/14 03:53:04;;;;;;;12.52;6.00;;;;;;;20.49;100.00;101064.66;5031050;28;20026;-74
2023/08/14 03:55:29;;;;;;;9.23;5.95;;;;;;;20.20;100.00;101000.75;5031321;28;20408;-73
2023/08/14 03:57:56;;;;;;;7.95;5.70;;;;;;;20.21;100.00;101001.56;5013505;28;20036;-75
2023/08/14 04:00:22;;;;;;;10.48;5.90;;;;;;;20.72;100.00;101072.06;5031065;28;20030;-76
2023/08/14 04:02:47;;;;;;;7.43;5.53;;;;;;;20.50;100.00;101009.47;5013798;28;20049;-74
2023/08/14 04:05:13;;;;;;;8.80;5.57;;;;;;;20.82;100.00;101045.75;5031691;28;20045;-76
2023/08/14 04:07:38;;;;;;;6.82;4.75;;;;;;;21.08;100.00;101027.09;5030947;28;20040;-76
2023/08/14 04:10:04;;;;;;;6.68;5.15;;;;;;;20.94;100.00;100963.16;5031152;28;20024;-75
2023/08/14 04:12:30;;;;;;;8.43;5.28;;;;;;;21.00;100.00;100960.22;5031475;28;20051;-74
2023/08/14 04:15:10;;;;;;;7.82;5.03;;;;;;;20.89;100.00;100970.34;5030838;28;20492;-76
2023/08/14 04:17:36;;;;;;;7.17;5.63;;;;;;;21.26;100.00;101013.97;5035813;28;20022;-76
2023/08/14 04:20:01;;;;;;;7.75;5.57;;;;;;;21.19;100.00;101045.47;5035950;28;20785;-77
2023/08/14 04:22:27;;;;;;;8.02;5.95;;;;;;;20.77;100.00;100965.84;5035308;28;20037;-76
2023/08/14 04:24:52;;;;;;;8.43;5.75;;;;;;;21.57;100.00;101036.38;5040905;28;20474;-73
2023/08/14 04:27:17;;;;;;;8.90;6.22;;;;;;;21.64;100.00;101032.53;5054722;28;20032;-75
2023/08/14 04:29:43;;;;;;;10.35;5.82;;;;;;;21.50;100.00;101042.84;5055273;28;20456;-75
2023/08/14 04:32:08;;;;;;;6.93;5.50;;;;;;;21.20;100.00;101024.66;5055786;28;20095;-77
2023/08/14 04:34:34;;;;;;;8.77;5.80;;;;;;;21.74;100.00;101038.03;5055026;28;20646;-74
2023/08/14 04:36:59;;;;;;;9.00;5.22;;;;;;;21.27;100.00;100988.94;5037029;28;20029;-74
2023/08/14 04:39:25;;;;;;;9.55;5.80;;;;;;;21.67;100.00;101039.31;5054728;28;20529;-73
2023/08/14 04:41:50;;;;;;;10.15;6.20;;;;;;;21.45;100.00;100943.94;5027181;28;20037;-75
2023/08/14 04:44:15;;;;;;;9.43;6.07;;;;;;;21.43;100.00;100977.63;5034906;28;20520;-76
2023/08/14 04:46:41;;;;;;;9.13;5.72;;;;;;;21.98;100.00;101041.84;5035068;28;20060;-75
2023/08/14 04:49:06;;;;;;;9.88;5.60;;;;;;;21.30;100.00;100929.25;5034450;28;20044;-77
2023/08/14 04:51:32;;;;;;;8.27;5.80;;;;;;;21.95;100.00;101058.38;5034399;28;20021;-75
2023/08/14 04:53:59;;;;;;;9.52;5.72;;;;;;;22.55;100.00;101034.97;5033867;28;20029;-77
2023/08/14 04:56:25;;;;;;;10.27;5.90;;;;;;;21.75;100.00;100931.78;5034951;28;20498;-76
2023/08/14 04:58:51;;;;;;;10.90;5.97;;;;;;;22.47;100.00;101024.22;5035346;28;20035;-77
2023/08/14 05:01:16;;;;;;;9.90;6.03;;;;;;;22.70;100.00;101016.72;5035160;28;20034;-77
2023/08/14 05:03:42;;;;;;;7.97;5.50;;;;;;;22.46;100.00;100976.75;5046782;28;20053;-77
2023/08/14 05:06:07;;;;;;;9.10;5.45;;;;;;;22.96;100.00;101004.75;5054675;28;20064;-75
2023/08/14 05:08:34;;;;;;;10.38;5.32;;;;;;;23.08;100.00;101016.94;5054892;28;20052;-73
2023/08/14 05:10:59;;;;;;;9.65;5.53;;;;;;;23.08;100.00;100991.84;5037569;28;20496;-75
2023/08/14 05:13:25;;;;;;;10.23;5.10;;;;;;;23.29;100.00;100979.25;5037261;28;20037;-76
2023/08/14 05:15:51;;;;;;;8.20;5.32;;;;;;;23.57;100.00;100991.31;5054607;28;20032;-76
2023/08/14 05:18:17;;;;;;;7.88;5.47;;;;;;;23.27;100.00;100935.22;5054433;28;20036;-76
2023/08/14 05:20:46;;;;;;;10.45;5.40;;;;;;;23.80;100.00;100986.28;5036924;28;20120;-77
2023/08/14 05:23:12;;;;;;;12.63;4.78;;;;;;;23.86;100.00;100901.88;5048642;28;20124;-76
2023/08/14 05:25:38;;;;;;;8.82;4.70;;;;;;;24.02;100.00;100924.16;5054403;28;20048;-76
2023/08/14 05:28:05;;;;;;;9.15;5.05;;;;;;;24.38;100.00;100967.59;5035327;28;20495;-77
2023/08/14 05:30:30;;;;;;;7.93;4.90;;;;;;;24.12;100.00;100913.97;5054360;28;20029;-77
2023/08/14 05:32:56;;;;;;;8.25;4.63;;;;;;;24.90;100.00;100968.19;5054439;28;20040;-76
2023/08/14 05:35:24;;;;;;;8.07;5.10;;;;;;;24.42;100.00;100903.19;5054502;28;20388;-76
2023/08/14 05:37:55;;;;;;;8.85;5.10;;;;;;;25.24;100.00;100917.13;5036518;28;20056;-76
2023/08/14 05:40:25;;;;;;;8.48;4.82;;;;;;;25.59;100.00;100959.63;5054204;28;20029;-76
2023/08/14 05:43:10;;;;;;;4.47;3.92;;;;;;;25.11;100.00;100984.06;5054432;28;20554;-76
2023/08/14 05:45:44;;;;;;;4.22;3.83;;;;;;;25.38;100.00;100908.28;5036597;28;20496;-78
2023/08/14 05:48:11;;;;;;;6.80;3.75;;;;;;;25.30;100.00;100863.75;5036464;28;20419;-74
2023/08/14 05:50:37;;;;;;;4.03;3.60;;;;;;;25.95;100.00;100956.03;5053996;28;20404;-75
2023/08/14 05:53:04;;;;;;;5.28;3.40;;;;;;;26.09;100.00;100940.19;5036938;28;20021;-79
2023/08/14 05:55:48;;;;;;;7.38;3.85;;;;;;;26.11;100.00;100945.28;5036410;28;20454;-78
2023/08/14 05:58:13;;;;;;;9.52;3.67;;;;;;;25.70;100.00;100919.75;5054536;28;20032;-79
2023/08/14 06:00:39;;;;;;;7.63;3.58;;;;;;;25.68;100.00;100869.53;5054354;28;20028;-79
2023/08/14 06:03:05;;;;;;;3.92;3.15;;;;;;;26.03;100.00;100948.47;5054166;28;20060;-76
2023/08/14 06:05:31;;;;;;;5.47;3.40;;;;;;;26.13;100.00;100946.00;5054093;28;20496;-77
2023/08/14 06:07:58;;;;;;;4.07;3.40;;;;;;;25.70;100.00;100891.94;5053701;28;20044;-76
2023/08/14 06:10:23;;;;;;;3.78;3.38;;;;;;;26.29;100.00;100915.19;5054717;28;20028;-77
2023/08/14 06:12:50;;;;;;;5.80;3.70;;;;;;;26.03;100.00;100885.09;5054413;28;20238;-77
2023/08/14 06:15:16;;;;;;;4.95;3.60;;;;;;;26.62;100.00;100943.88;5036836;28;20108;-75
2023/08/14 06:17:42;;;;;;;7.70;3.55;;;;;;;26.95;100.00;100935.97;5039697;28;20037;-77
2023/08/14 06:20:12;;;;;;;4.28;3.25;;;;;;;27.06;100.00;100938.53;5044636;28;20411;-78
2023/08/14 06:22:46;;;;;;;4.78;3.50;;;;;;;26.58;100.00;100898.88;5066180;28;20036;-78
2023/08/14 06:25:13;;;;;;;5.53;3.15;;;;;;;26.63;100.00;100961.16;5054048;28;20168;-77
2023/08/14 06:27:39;;;;;;;5.72;3.20;;;;;;;26.45;100.00;100945.19;5055544;28;20029;-76
2023/08/14 06:30:08;;;;;;;6.20;3.35;;;;;;;26.47;100.00;100896.31;5053606;28;20029;-76
2023/08/14 06:32:33;;;;;;;4.78;3.13;;;;;;;26.83;100.00;100947.41;5053096;28;20025;-76
2023/08/14 06:34:59;;;;;;;6.05;3.20;;;;;;;26.41;100.00;100888.97;5053249;28;20033;-76
2023/08/14 06:37:24;;;;;;;4.78;3.10;;;;;;;26.75;100.00;100939.34;5053470;28;20086;-77
2023/08/14 06:39:50;;;;;;;4.00;2.80;;;;;;;26.68;100.00;100912.06;5055716;28;20056;-76
2023/08/14 06:42:15;;;;;;;4.03;3.22;;;;;;;26.18;100.00;100865.66;5053468;28;20036;-77
2023/08/14 06:44:40;;;;;;;4.13;3.30;;;;;;;26.86;100.00;100943.72;5053107;28;20401;-75
2023/08/14 06:47:06;;;;;;;8.50;4.15;;;;;;;26.58;100.00;100893.66;5053012;28;20025;-76
2023/08/14 06:49:31;;;;;;;3.97;3.47;;;;;;;26.83;100.00;100904.78;5053215;28;20039;-77
2023/08/14 06:51:57;;;;;;;3.85;3.20;;;;;;;26.73;100.00;100949.09;5053057;28;20075;-76
2023/08/14 06:54:22;;;;;;;3.05;2.75;;;;;;;27.05;100.00;100933.44;5053185;28;20067;-76
2023/08/14 06:56:48;;;;;;;5.35;3.33;;;;;;;26.82;100.00;100880.47;5053188;28;20025;-76
2023/08/14 06:59:13;;;;;;;4.63;3.22;;;;;;;27.22;100.00;100935.50;5053119;28;20025;-76
2023/08/14 07:02:14;;;;;;;4.63;2.85;;;;;;;27.15;100.00;100937.81;5035202;28;20405;-76
2023/08/14 07:14:45;;;;;;;;;;;;;;;27.86;100.00;100907.47;5053056;28;20079;-76
2023/08/14 07:17:10;;;;;;;4.63;3.30;;;;;;;28.50;100.00;100806.75;5052849;28;20342;-77
2023/08/14 07:19:36;;;;;;;5.18;3.70;;;;;;;28.56;100.00;100874.31;5052980;28;20271;-78
2023/08/14 07:22:01;;;;;;;3.92;3.00;;;;;;;28.42;100.00;100898.22;5055271;28;20036;-78
2023/08/14 07:24:27;;;;;;;5.00;3.10;;;;;;;28.55;100.00;100893.59;5072032;28;20106;-77
2023/08/14 07:26:53;;;;;;;4.82;3.50;;;;;;;28.42;100.00;100900.00;5073093;28;20024;-77
2023/08/14 07:29:18;;;;;;;6.00;3.10;;;;;;;28.64;100.00;100845.66;5073116;28;20384;-76
2023/08/14 07:31:43;;;;;;;7.03;3.55;;;;;;;29.17;100.00;100864.41;5072795;28;20020;-75
2023/08/14 07:34:09;;;;;;;6.20;3.40;;;;;;;29.32;100.00;100789.59;5072420;28;20090;-76
2023/08/14 07:36:34;;;;;;;6.03;3.50;;;;;;;29.48;100.00;100810.78;5054239;28;20135;-76
2023/08/14 07:39:00;;;;;;;7.25;3.20;;;;;;;29.45;100.00;100756.03;5071871;28;20063;-76
2023/08/14 07:41:25;;;;;;;3.67;3.30;;;;;;;29.32;100.00;100842.03;5072269;28;20052;-76
2023/08/14 07:43:50;;;;;;;4.18;3.25;;;;;;;29.14;100.00;100777.41;5056964;28;20028;-75
2023/08/14 07:46:17;;;;;;;5.88;3.30;;;;;;;29.28;100.00;100776.94;5051630;28;20455;-75
2023/08/14 07:48:43;;;;;;;4.13;3.08;;;;;;;29.66;100.00;100845.78;5034715;28;20476;-78
2023/08/14 07:51:09;;;;;;;6.05;3.40;;;;;;;28.58;100.00;100827.88;5033139;28;20025;-73
2023/08/14 07:53:34;;;;;;;6.22;3.30;;;;;;;29.47;100.00;100863.38;5033703;28;20033;-76
2023/08/14 07:56:00;;;;;;;6.95;3.70;;;;;;;28.76;100.00;100838.50;5052002;28;20583;-75
2023/08/14 07:58:25;;;;;;;4.85;3.70;;;;;;;28.43;100.00;100857.97;5033967;28;20086;-76
2023/08/14 08:00:52;;;;;;;5.35;3.38;;;;;;;29.15;100.00;100900.41;5051800;28;20022;-76
2023/08/14 08:03:17;;;;;;;6.53;3.78;;;;;;;28.35;100.00;100860.44;5027529;28;20095;-74
2023/08/14 08:05:42;;;;;;;4.90;3.50;;;;;;;28.81;100.00;100902.56;5031933;28;20080;-75
2023/08/14 08:08:08;;;;;;;5.72;3.78;;;;;;;28.34;100.00;100874.50;5013917;28;20034;-74
2023/08/14 08:10:34;;;;;;;6.32;3.88;;;;;;;28.41;100.00;100822.44;5031943;28;20040;-75
2023/08/14 08:12:59;;;;;;;4.45;3.65;;;;;;;29.02;100.00;100913.75;5014098;28;20033;-75
2023/08/14 08:15:25;;;;;;;6.47;3.80;;;;;;;29.46;100.00;100869.56;5031620;28;20037;-75
2023/08/14 08:17:50;;;;;;;4.40;3.72;;;;;;;30.47;100.00;100826.59;5031682;28;20026;-74
2023/08/14 08:20:15;;;;;;;4.50;3.83;;;;;;;30.08;100.00;100787.63;5031289;28;20030;-75
2023/08/14 08:22:41;;;;;;;8.05;4.10;;;;;;;30.67;100.00;100808.88;5031562;28;20040;-75
2023/08/14 08:25:07;;;;;;;5.97;3.67;;;;;;;30.24;100.00;100803.53;5013819;28;20571;-75
2023/08/14 08:27:35;;;;;;;5.45;3.78;;;;;;;30.93;100.00;100858.88;5031462;28;20036;-74
2023/08/14 08:30:00;;;;;;;8.75;4.20;;;;;;;30.71;100.00;100797.09;5031206;28;20033;-75
2023/08/14 08:32:25;;;;;;;5.65;3.70;;;;;;;29.44;100.00;100897.72;5013852;28;20030;-75
2023/08/14 08:34:51;;;;;;;8.18;3.70;;;;;;;29.70;100.00;100839.28;5031163;28;20120;-74
2023/08/14 08:37:19;;;;;;;5.50;3.90;;;;;;;28.66;100.00;100827.19;5031450;28;20030;-74
2023/08/14 08:39:44;;;;;;;8.25;3.90;;;;;;;29.54;100.00;100859.22;5013418;28;20125;-74
2023/08/14 08:42:10;;;;;;;6.28;4.30;;;;;;;30.24;100.00;100830.63;5031285;28;20407;-77
2023/08/14 08:44:38;;;;;;;4.68;3.78;;;;;;;31.37;100.00;100858.75;5031718;28;20475;-74
2023/08/14 08:47:10;;;;;;;5.57;3.90;;;;;;;31.65;100.00;100829.66;5013773;28;20028;-74
2023/08/14 08:49:36;;;;;;;8.02;4.20;;;;;;;31.58;100.00;100829.44;5031084;28;20404;-75
2023/08/14 08:52:03;;;;;;;5.57;3.80;;;;;;;31.16;100.00;100802.25;5031115;28;20036;-74
2023/08/14 08:54:30;;;;;;;8.35;4.22;;;;;;;30.53;100.00;100873.28;5031187;28;20041;-74
2023/08/14 08:56:56;;;;;;;4.05;3.50;;;;;;;30.08;100.00;100897.84;5031393;28;20032;-74
2023/08/14 08:59:22;;;;;;;6.68;3.90;;;;;;;30.41;100.00;100873.63;5031073;28;20470;-74
2023/08/14 09:01:48;;;;;;;8.15;3.75;;;;;;;29.75;100.00;100825.78;5014583;28;20488;-76
2023/08/14 09:04:14;;;;;;;7.70;3.53;;;;;;;30.40;100.00;100845.75;5048945;28;20056;-74
2023/08/14 09:06:40;;;;;;;4.68;3.53;;;;;;;30.55;100.00;100800.41;5054211;28;20036;-74
2023/08/14 09:09:06;;;;;;;4.88;3.63;;;;;;;30.32;100.00;100801.84;5054294;28;20454;-75
2023/08/14 09:11:32;;;;;;;6.60;3.47;;;;;;;30.37;100.00;100877.53;5036918;28;20067;-74
2023/08/14 09:13:58;;;;;;;7.65;3.75;;;;;;;30.50;100.00;100823.69;5053682;28;20517;-74
2023/08/14 09:16:24;;;;;;;5.15;3.70;;;;;;;30.69;100.00;100847.16;5054190;28;20033;-75
2023/08/14 09:18:49;;;;;;;6.25;3.78;;;;;;;30.10;100.00;100859.97;5054343;28;20035;-76
2023/08/14 09:21:15;;;;;;;4.47;3.58;;;;;;;30.90;100.00;100846.06;5054149;28;20104;-74
2023/08/14 09:23:42;;;;;;;6.72;3.80;;;;;;;30.18;100.00;100815.47;5036666;28;20040;-76
2023/08/14 09:26:08;;;;;;;5.60;3.50;;;;;;;30.03;100.00;100879.09;5054710;28;20084;-77
2023/08/14 09:28:35;;;;;;;4.55;3.30;;;;;;;30.91;100.00;100793.34;5054597;28;20147;-74
2023/08/14 09:31:13;;;;;;;5.55;3.50;;;;;;;30.56;100.00;100799.47;5054296;28;20043;-73
2023/08/14 09:33:40;;;;;;;4.78;3.65;;;;;;;30.92;100.00;100846.75;5053561;28;20557;-76
2023/08/14 09:36:06;;;;;;;5.63;3.38;;;;;;;31.04;100.00;100829.75;5054343;28;20112;-75
2023/08/14 09:38:32;;;;;;;6.97;3.63;;;;;;;30.60;100.00;100865.63;5054236;28;20036;-74
2023/08/14 09:40:58;;;;;;;4.22;3.60;;;;;;;30.33;100.00;100815.78;5054355;28;20033;-77
2023/08/14 09:43:25;;;;;;;6.20;3.53;;;;;;;30.76;100.00;100855.28;5054832;28;20025;-74
2023/08/14 09:45:51;;;;;;;9.48;4.00;;;;;;;30.08;100.00;100875.03;5054096;28;20037;-76
2023/08/14 09:48:17;;;;;;;6.20;3.40;;;;;;;30.06;100.00;100800.88;5054142;28;20504;-78
2023/08/14 09:50:49;;;;;;;4.00;3.60;;;;;;;30.20;100.00;100823.19;5054338;28;20028;-77
2023/08/14 09:53:15;;;;;;;4.38;3.97;;;;;;;30.52;100.00;100797.28;5054046;28;20414;-76
2023/08/14 09:55:41;;;;;;;8.23;3.80;;;;;;;30.56;100.00;100806.50;5054131;28;20037;-77
2023/08/14 09:58:07;;;;;;;4.88;3.80;;;;;;;31.38;100.00;100841.16;5053968;28;20044;-77
2023/08/14 10:00:33;;;;;;;4.32;3.60;;;;;;;30.53;100.00;100812.88;5054014;28;20064;-77
2023/08/14 10:03:00;;;;;;;6.72;3.95;;;;;;;30.68;100.00;100869.16;5035991;28;20045;-77
2023/08/14 10:05:26;;;;;;;5.53;3.78;;;;;;;30.30;100.00;100819.56;5054155;28;20031;-73
2023/08/14 10:07:54;;;;;;;7.13;4.00;;;;;;;30.75;100.00;100857.09;5054236;28;20120;-77
2023/08/14 10:10:22;;;;;;;6.47;3.72;;;;;;;30.40;100.00;100862.31;5054099;28;20025;-78
2023/08/14 10:12:56;;;;;;;4.35;3.80;;;;;;;30.09;100.00;100808.44;5036206;28;20044;-78
2023/08/14 10:15:26;;;;;;;5.32;3.70;;;;;;;30.51;100.00;100863.88;5053719;28;20029;-74
2023/08/14 10:17:58;;;;;;;8.00;3.63;;;;;;;29.94;100.00;100823.06;5036452;28;20056;-76
2023/08/14 10:20:26;;;;;;;5.28;3.97;;;;;;;30.39;100.00;100852.78;5054193;28;20021;-77
2023/08/14 10:22:52;;;;;;;4.75;3.88;;;;;;;31.04;100.00;100840.28;5053844;28;20036;-76
2023/08/14 10:25:20;;;;;;;4.45;3.80;;;;;;;30.73;100.00;100848.53;5053226;28;20037;-78
2023/08/14 10:27:46;;;;;;;6.43;4.15;;;;;;;30.35;100.00;100859.31;5053669;28;20491;-77
2023/08/14 10:30:52;;;;;;;5.95;4.18;;;;;;;30.16;100.00;100876.94;5053340;28;20119;-77
2023/08/14 10:33:19;;;;;;;4.38;3.90;;;;;;;30.03;100.00;100830.03;5035545;28;20036;-77
2023/08/14 10:35:53;;;;;;;5.20;3.92;;;;;;;30.59;100.00;100866.59;5053464;28;20044;-77
2023/08/14 10:38:20;;;;;;;7.22;4.15;;;;;;;30.75;100.00;100862.34;5053133;28;20086;-77
2023/08/14 10:40:53;;;;;;;6.68;3.65;;;;;;;31.66;100.00;100821.59;5053286;28;20540;-77
2023/08/14 10:43:24;;;;;;;4.93;4.10;;;;;;;30.31;100.00;100765.22;5035019;28;20499;-74
2023/08/14 10:45:51;;;;;;;;;;;;;;;31.25;100.00;100844.19;5053322;28;20099;-75
2023/08/14 10:48:17;;;;;;;5.28;3.80;;;;;;;30.41;100.00;100805.38;5052339;28;19916;-74
2023/08/14 10:50:48;;;;;;;5.70;4.30;;;;;;;30.38;100.00;100803.88;5053042;28;20033;-76
2023/08/14 10:53:14;;;;;;;8.20;4.15;;;;;;;30.61;100.00;100862.84;5052779;28;20040;-76
2023/08/14 10:55:45;;;;;;;5.88;3.97;;;;;;;30.36;100.00;100807.63;5053002;28;20033;-75
2023/08/14 10:58:29;;;;;;;;;;;;;;;30.55;100.00;100860.00;5053253;28;20086;-76
2023/08/14 11:00:55;;;;;;;6.88;4.18;;;;;;;29.89;100.00;100762.34;5052860;28;19951;-76
2023/08/14 11:03:20;;;;;;;4.75;4.10;;;;;;;30.90;100.00;100856.59;5052425;28;20496;-75
2023/08/14 11:05:46;;;;;;;6.20;4.47;;;;;;;30.69;100.00;100847.16;5052780;28;20033;-75
2023/08/14 11:08:12;;;;;;;5.03;4.30;;;;;;;31.67;100.00;100811.91;5052933;28;20093;-75
2023/08/14 11:10:39;;;;;;;5.25;3.75;;;;;;;31.62;100.00;100804.47;5052787;28;20029;-75
2023/08/14 11:13:09;;;;;;;6.72;4.30;;;;;;;31.20;100.00;100785.19;5052773;28;20033;-77
2023/08/14 11:15:39;;;;;;;8.88;3.90;;;;;;;30.83;100.00;100816.91;5052685;28;20036;-75
2023/08/14 11:18:06;;;;;;;5.45;4.57;;;;;;;30.46;100.00;100782.13;5052411;28;20029;-76
2023/08/14 11:20:32;;;;;;;6.25;3.75;;;;;;;31.09;100.00;100756.50;5034639;28;20029;-75
2023/08/14 11:23:00;;;;;;;5.38;3.90;;;;;;;31.72;100.00;100784.13;5052652;28;20033;-76
2023/08/14 11:25:26;;;;;;;5.35;4.10;;;;;;;31.44;100.00;100707.25;5034428;28;20412;-76